Time;durP1;ratioP1;P1;durP2;ratioP2;P2;SDS_P1;SDS_P2;PMS_P1;PMS_P2;Temp;Humidity;BMP_temperature;BMP_pressure;BME280_temperature;BME280_humidity;BME280_pressure;Samples;Min_cycle;Max_cycle;Signal;HPM_P1;HPM_P2
2021/12/07 00:00:27;;;;;;;;;;;;;;;7.78;61.11;99403.00;4974320;28;6967;-73
2021/12/07 00:02:54;;;;;;;;;;;;;;;7.80;61.08;99414.13;4974914;28;6883;-73
2021/12/07 00:05:19;;;;;;;;;;;;;;;7.82;61.24;99412.53;4977791;28;6807;-73
2021/12/07 00:07:46;;;;;;;;;;;;;;;7.85;60.84;99416.88;4976858;28;6812;-73
2021/12/07 00:10:14;;;;;;;;;;;;;;;7.87;60.70;99418.72;4960903;28;6970;-73
2021/12/07 00:12:44;;;;;;;;;;;;;;;7.88;60.99;99427.25;4978760;28;6804;-73
2021/12/07 00:15:12;;;;;;;;;;;;;;;7.88;60.98;99430.66;4960504;28;6989;-73
2021/12/07 00:17:38;;;;;;;;;;;;;;;7.89;60.72;99434.94;4979329;28;7195;-73
2021/12/07 00:20:12;;;;;;;;;;;;;;;7.91;60.76;99440.97;4962933;28;7210;-73
2021/12/07 00:22:41;;;;;;;;;;;;;;;7.91;60.58;99435.88;4977005;28;7251;-74
2021/12/07 00:25:09;;;;;;;;;;;;;;;7.92;61.34;99447.84;4978854;28;7908;-74
2021/12/07 00:27:35;;;;;;;;;;;;;;;7.93;61.21;99446.16;4978337;28;6796;-73
2021/12/07 00:30:03;;;;;;;;;;;;;;;7.95;61.29;99443.69;4979667;28;7938;-73
2021/12/07 00:32:36;;;;;;;;;;;;;;;7.95;61.31;99442.00;4977202;28;6824;-73
2021/12/07 00:37:55;;;;;;;;;;;;;;;8.00;61.72;99460.06;4978175;28;8739;-73
2021/12/07 00:40:23;;;;;;;;;;;;;;;8.02;62.08;99464.41;4962062;28;6977;-73
2021/12/07 00:42:49;;;;;;;;;;;;;;;8.03;61.51;99461.06;4978357;28;6900;-73
2021/12/07 00:45:18;;;;;;;;;;;;;;;8.08;61.93;99476.56;4968477;28;6877;-73
2021/12/07 00:47:44;;;;;;;;;;;;;;;8.12;61.93;99481.03;4978932;28;6823;-73
2021/12/07 00:50:11;;;;;;;;;;;;;;;8.14;62.21;99486.16;4961215;28;7155;-73
2021/12/07 00:52:38;;;;;;;;;;;;;;;8.16;61.75;99492.22;4977924;28;7841;-73
2021/12/07 00:55:11;;;;;;;;;;;;;;;8.18;61.83;99491.47;4958379;28;6816;-73
2021/12/07 00:57:37;;;;;;;;;;;;;;;8.21;61.59;99498.41;4977703;28;6987;-73
2021/12/07 01:00:12;;;;;;;;;;;;;;;8.24;61.12;99497.66;4959186;28;7137;-73
2021/12/07 01:02:38;;;;;;;;;;;;;;;8.25;60.65;99504.50;4977667;28;6804;-73
2021/12/07 01:05:14;;;;;;;;;;;;;;;8.25;60.69;99494.31;4991530;28;7908;-73
2021/12/07 01:26:39;;;;;;;;;;;;;;;8.19;61.33;99534.06;4976934;28;7154;-73
2021/12/07 01:29:05;;;;;;;;;;;;;;;8.22;61.25;99529.91;4976598;28;7154;-73
2021/12/07 01:31:42;;;;;;;;;;;;;;;8.24;61.50;99551.28;4960457;28;6798;-73
2021/12/07 01:52:42;;;;;;;;;;;;;;;8.40;62.26;99580.91;4943962;28;7177;-73
2021/12/07 02:00:27;;;;;;;;;;;;;;;8.51;62.39;99600.13;4953335;28;6998;-73
2021/12/07 02:02:53;;;;;;;;;;;;;;;8.55;61.41;99609.69;4956452;28;6997;-73
2021/12/07 02:05:19;;;;;;;;;;;;;;;8.57;62.07;99610.63;4954448;28;7139;-73
2021/12/07 02:07:45;;;;;;;;;;;;;;;8.58;62.30;99612.38;4971468;28;6783;-73
2021/12/07 02:10:17;;;;;;;;;;;;;;;8.58;62.23;99629.38;4975008;28;7189;-73
2021/12/07 02:12:47;;;;;;;;;;;;;;;8.57;61.52;99623.41;4953590;28;6812;-73
2021/12/07 02:15:20;;;;;;;;;;;;;;;8.57;61.48;99636.19;4967256;28;7598;-73
2021/12/07 02:17:48;;;;;;;;;;;;;;;8.57;61.33;99641.28;4972257;28;6808;-73
2021/12/07 02:20:17;;;;;;;;;;;;;;;8.57;61.57;99640.41;4970803;28;6808;-73
2021/12/07 02:22:43;;;;;;;;;;;;;;;8.57;61.76;99638.72;4970806;28;6824;-73
2021/12/07 02:25:12;;;;;;;;;;;;;;;8.55;61.46;99635.25;4985571;28;7003;-73
2021/12/07 02:27:38;;;;;;;;;;;;;;;8.52;61.62;99644.44;4972385;28;6811;-73
2021/12/07 02:30:11;;;;;;;;;;;;;;;8.51;61.98;99640.16;4953654;28;7981;-73
2021/12/07 02:32:38;;;;;;;;;;;;;;;8.47;61.35;99650.19;4967162;28;6796;-73
2021/12/07 02:35:06;;;;;;;;;;;;;;;8.43;60.66;99645.75;4968354;28;6888;-73
2021/12/07 02:37:35;;;;;;;;;;;;;;;8.38;61.92;99651.47;4971209;28;6812;-73
2021/12/07 02:40:01;;;;;;;;;;;;;;;8.34;61.12;99653.84;4970724;28;7286;-73
2021/12/07 02:42:27;;;;;;;;;;;;;;;8.31;61.36;99660.53;4970332;28;6785;-73
2021/12/07 02:44:55;;;;;;;;;;;;;;;8.28;60.82;99665.47;4968795;28;7545;-73
2021/12/07 02:47:21;;;;;;;;;;;;;;;8.25;61.13;99671.31;4968200;28;7147;-73
2021/12/07 02:49:48;;;;;;;;;;;;;;;8.22;60.97;99676.28;4973659;28;6891;-73
2021/12/07 02:52:16;;;;;;;;;;;;;;;8.18;60.90;99680.38;4970999;28;6792;-73
2021/12/07 02:54:45;;;;;;;;;;;;;;;8.17;60.85;99687.97;4968204;28;7001;-73
2021/12/07 02:57:19;;;;;;;;;;;;;;;8.15;61.71;99690.44;4977048;28;6788;-73
2021/12/07 02:59:56;;;;;;;;;;;;;;;8.16;62.28;99691.31;4952870;28;7017;-73
2021/12/07 03:02:23;;;;;;;;;;;;;;;8.18;62.08;99702.50;4969666;28;7276;-73
2021/12/07 03:05:00;;;;;;;;;;;;;;;8.19;62.36;99702.53;4983969;28;7087;-73
2021/12/07 03:26:20;;;;;;;;;;;;;;;8.28;61.98;99739.53;4969387;28;7165;-73
2021/12/07 03:28:50;;;;;;;;;;;;;;;8.28;60.94;99754.84;4974047;28;7125;-74
2021/12/07 03:31:19;;;;;;;;;;;;;;;8.26;61.46;99753.91;4973844;28;6827;-74
2021/12/07 03:33:45;;;;;;;;;;;;;;;8.25;61.41;99765.78;4990408;28;6950;-74
2021/12/07 03:36:13;;;;;;;;;;;;;;;8.25;61.46;99762.38;4971990;28;7281;-74
2021/12/07 03:38:41;;;;;;;;;;;;;;;8.26;62.02;99770.09;4956463;28;6966;-74
2021/12/07 03:41:08;;;;;;;;;;;;;;;8.30;61.49;99771.09;4943560;28;6837;-74
2021/12/07 03:43:34;;;;;;;;;;;;;;;8.32;62.17;99769.53;4957528;28;6800;-74
2021/12/07 03:46:01;;;;;;;;;;;;;;;8.33;61.57;99777.22;4957605;28;7314;-74
2021/12/07 03:48:27;;;;;;;;;;;;;;;8.34;61.39;99778.97;4974638;28;6796;-74
2021/12/07 03:50:53;;;;;;;;;;;;;;;8.36;60.96;99781.59;4974670;28;6812;-74
2021/12/07 03:53:19;;;;;;;;;;;;;;;8.38;61.52;99785.09;4972972;28;7201;-74
2021/12/07 03:55:44;;;;;;;;;;;;;;;8.38;60.95;99785.09;4976801;28;7019;-74
2021/12/07 03:58:11;;;;;;;;;;;;;;;8.35;61.57;99790.09;4972825;28;7383;-74
2021/12/07 04:00:42;;;;;;;;;;;;;;;8.30;61.75;99792.41;4969280;28;6820;-74
2021/12/07 04:03:12;;;;;;;;;;;;;;;8.24;61.43;99799.78;4973826;28;6812;-74
2021/12/07 04:05:47;;;;;;;;;;;;;;;8.16;60.83;99804.53;4975433;28;6825;-74
2021/12/07 04:08:18;;;;;;;;;;;;;;;8.12;60.83;99802.63;4976461;28;6990;-74
2021/12/07 04:10:45;;;;;;;;;;;;;;;8.12;62.32;99812.84;4974941;28;6808;-74
2021/12/07 04:13:10;;;;;;;;;;;;;;;8.15;61.82;99809.53;4975327;28;6808;-74
2021/12/07 04:15:37;;;;;;;;;;;;;;;8.19;61.11;99819.97;4963017;28;6979;-74
2021/12/07 04:18:04;;;;;;;;;;;;;;;8.24;61.60;99824.44;4957954;28;7672;-74
2021/12/07 04:20:30;;;;;;;;;;;;;;;8.27;61.48;99822.91;4975478;28;6800;-74
2021/12/07 04:22:56;;;;;;;;;;;;;;;8.31;61.79;99829.06;4976561;28;7243;-74
2021/12/07 04:25:23;;;;;;;;;;;;;;;8.31;61.08;99829.91;4975399;28;7201;-74
2021/12/07 04:27:52;;;;;;;;;;;;;;;8.32;61.86;99828.25;4978185;28;6900;-74
2021/12/07 04:30:24;;;;;;;;;;;;;;;8.30;61.39;99820.50;4975234;28;6887;-74
2021/12/07 04:32:51;;;;;;;;;;;;;;;8.29;61.29;99825.53;4975726;28;6891;-74
2021/12/07 04:35:18;;;;;;;;;;;;;;;8.25;61.02;99838.97;4978404;28;6975;-74
2021/12/07 04:37:44;;;;;;;;;;;;;;;8.21;61.86;99837.94;4991344;28;6812;-74
2021/12/07 04:40:22;;;;;;;;;;;;;;;8.14;60.42;99846.97;4973069;28;7101;-74
2021/12/07 04:42:49;;;;;;;;;;;;;;;8.08;60.87;99856.88;4972868;28;6816;-74
2021/12/07 04:45:31;;;;;;;;;;;;;;;8.02;61.26;99859.13;4972934;28;7345;-74
2021/12/07 04:59:16;;;;;;;;;;;;;;;7.72;60.97;99862.78;4979801;28;6899;-74
2021/12/07 05:01:43;;;;;;;;;;;;;;;7.71;61.78;99868.66;4962038;28;6812;-74
2021/12/07 05:04:14;;;;;;;;;;;;;;;7.70;61.25;99863.47;4975918;28;6908;-74
2021/12/07 05:06:47;;;;;;;;;;;;;;;7.67;61.32;99876.09;4958147;28;6987;-74
2021/12/07 05:14:42;;;;;;;;;;;;;;;7.57;61.21;99878.16;4959084;28;7154;-74
2021/12/07 05:38:41;;;;;;;;;;;;;;;7.29;61.55;99901.31;4975599;28;6836;-74
2021/12/07 05:41:08;;;;;;;;;;;;;;;7.27;61.53;99908.03;4975179;28;6792;-74
2021/12/07 05:43:35;;;;;;;;;;;;;;;7.22;60.98;99911.22;4972101;28;7133;-74
2021/12/07 05:46:03;;;;;;;;;;;;;;;7.20;61.67;99922.13;4983599;28;6974;-74
2021/12/07 05:48:28;;;;;;;;;;;;;;;7.16;60.91;99931.25;4982364;28;7056;-74
2021/12/07 05:50:54;;;;;;;;;;;;;;;7.16;62.23;99930.41;4976353;28;6799;-74
2021/12/07 05:53:20;;;;;;;;;;;;;;;7.15;61.83;99924.41;4954080;28;7326;-74
2021/12/07 05:55:47;;;;;;;;;;;;;;;7.16;61.32;99932.94;4974429;28;7042;-74
2021/12/07 05:58:15;;;;;;;;;;;;;;;7.14;61.00;99937.97;4973090;28;7174;-74
2021/12/07 06:00:44;;;;;;;;;;;;;;;7.12;61.86;99931.00;4975318;28;6888;-74
2021/12/07 06:03:12;;;;;;;;;;;;;;;7.12;60.89;99943.75;4972149;28;6823;-74
2021/12/07 06:05:41;;;;;;;;;;;;;;;7.07;61.98;99957.13;4976214;28;7148;-74
2021/12/07 06:08:08;;;;;;;;;;;;;;;7.06;61.46;99949.41;4973586;28;7288;-74
2021/12/07 06:10:35;;;;;;;;;;;;;;;7.04;61.96;99959.50;4974334;28;7015;-74
2021/12/07 06:13:02;;;;;;;;;;;;;;;7.02;61.07;99962.78;4974700;28;7118;-74
2021/12/07 06:15:31;;;;;;;;;;;;;;;7.00;62.04;99961.78;4974991;28;7066;-74
2021/12/07 06:17:57;;;;;;;;;;;;;;;6.98;61.56;99973.56;4972573;28;6904;-74
2021/12/07 06:20:23;;;;;;;;;;;;;;;6.95;61.47;99972.63;4973563;28;6871;-74
2021/12/07 06:22:49;;;;;;;;;;;;;;;6.93;61.69;99979.31;4956884;28;6983;-74
2021/12/07 06:25:15;;;;;;;;;;;;;;;6.90;61.11;99983.34;4972665;28;9295;-74
2021/12/07 06:27:42;;;;;;;;;;;;;;;6.86;61.23;99983.97;4957506;28;6963;-74
2021/12/07 06:30:10;;;;;;;;;;;;;;;6.84;61.43;99985.53;4973697;28;6780;-74
2021/12/07 06:32:36;;;;;;;;;;;;;;;6.83;61.27;99977.03;4974885;28;7105;-74
2021/12/07 06:35:03;;;;;;;;;;;;;;;6.83;61.49;99989.78;4974010;28;6972;-74
2021/12/07 06:37:29;;;;;;;;;;;;;;;6.80;61.21;99982.84;4970455;28;6803;-74
2021/12/07 06:39:55;;;;;;;;;;;;;;;6.78;61.76;99974.22;4975117;28;7016;-74
2021/12/07 06:42:20;;;;;;;;;;;;;;;6.77;61.37;99969.03;4976212;28;7848;-74
2021/12/07 06:44:46;;;;;;;;;;;;;;;6.75;61.06;99965.53;4972980;28;6807;-74
2021/12/07 06:47:12;;;;;;;;;;;;;;;6.72;61.85;99962.81;4956708;28;7023;-74
2021/12/07 06:49:38;;;;;;;;;;;;;;;6.70;61.59;99974.56;4971411;28;6804;-74
2021/12/07 06:52:04;;;;;;;;;;;;;;;6.67;61.77;99970.22;4973583;28;7169;-74
2021/12/07 06:54:30;;;;;;;;;;;;;;;6.66;61.44;99984.59;4973933;28;7140;-74
2021/12/07 06:56:56;;;;;;;;;;;;;;;6.66;61.81;99988.78;4974039;28;6957;-74
2021/12/07 06:59:21;;;;;;;;;;;;;;;6.64;61.68;99978.53;4974557;28;6907;-74
2021/12/07 07:01:48;;;;;;;;;;;;;;;6.65;61.52;99982.84;4975719;28;7876;-74
2021/12/07 07:04:14;;;;;;;;;;;;;;;6.66;61.43;99993.88;4974224;28;6876;-74
2021/12/07 07:06:42;;;;;;;;;;;;;;;6.66;61.39;99989.69;4959325;28;7098;-74
2021/12/07 07:09:09;;;;;;;;;;;;;;;6.66;61.51;99991.34;4957240;28;6963;-74
2021/12/07 07:11:35;;;;;;;;;;;;;;;6.67;61.38;99983.81;4980605;28;6906;-74
2021/12/07 07:14:02;;;;;;;;;;;;;;;6.68;61.62;99987.25;4974950;28;7125;-74
2021/12/07 07:16:29;;;;;;;;;;;;;;;6.67;61.55;99978.69;4960364;28;6831;-74
2021/12/07 07:18:55;;;;;;;;;;;;;;;6.68;61.46;99989.78;4975206;28;6960;-74
2021/12/07 07:21:22;;;;;;;;;;;;;;;6.69;60.98;99985.56;4956673;28;7210;-74
2021/12/07 07:23:49;;;;;;;;;;;;;;;6.68;61.34;99997.44;4975139;28;6963;-74
2021/12/07 07:26:14;;;;;;;;;;;;;;;6.68;61.89;99997.44;4975292;28;6967;-74
2021/12/07 07:28:40;;;;;;;;;;;;;;;6.68;61.66;99999.97;4976049;28;7153;-74
2021/12/07 07:31:09;;;;;;;;;;;;;;;6.70;61.08;100007.69;4975369;28;7046;-74
2021/12/07 07:33:35;;;;;;;;;;;;;;;6.69;61.51;99999.19;4961154;28;6997;-74
2021/12/07 07:36:00;;;;;;;;;;;;;;;6.69;61.30;100001.72;4976269;28;6821;-74
2021/12/07 07:38:26;;;;;;;;;;;;;;;6.70;61.17;99995.84;4976107;28;6804;-74
2021/12/07 07:40:53;;;;;;;;;;;;;;;6.71;61.61;100002.69;4976797;28;6993;-74
2021/12/07 07:43:19;;;;;;;;;;;;;;;6.74;61.71;99997.75;4976016;28;6941;-74
2021/12/07 07:45:49;;;;;;;;;;;;;;;6.81;62.17;100001.56;4975952;28;6821;-74
2021/12/07 07:48:17;;;;;;;;;;;;;;;6.86;61.85;99989.94;4961244;28;7006;-74
2021/12/07 07:50:44;;;;;;;;;;;;;;;6.94;62.24;99995.47;4974861;28;6819;-74
2021/12/07 07:53:10;;;;;;;;;;;;;;;7.01;61.70;99999.25;4977111;28;6889;-74
2021/12/07 07:55:38;;;;;;;;;;;;;;;7.03;60.92;99995.97;4975428;28;7208;-74
2021/12/07 07:58:05;;;;;;;;;;;;;;;7.05;61.42;99999.50;4977578;28;7305;-74
2021/12/07 08:00:32;;;;;;;;;;;;;;;7.08;61.77;99994.56;4976120;28;7837;-74
2021/12/07 08:02:58;;;;;;;;;;;;;;;7.16;62.05;99989.03;4977903;28;6966;-74
2021/12/07 08:05:25;;;;;;;;;;;;;;;7.24;61.79;99987.75;4978620;28;6868;-74
2021/12/07 08:07:51;;;;;;;;;;;;;;;7.32;61.87;99988.19;4960075;28;6987;-74
2021/12/07 08:10:21;;;;;;;;;;;;;;;7.39;62.08;99989.38;4977546;28;6800;-74
2021/12/07 08:12:49;;;;;;;;;;;;;;;7.46;61.02;99997.44;4976119;28;6856;-74
2021/12/07 08:15:15;;;;;;;;;;;;;;;7.49;62.09;99992.53;4976832;28;6824;-74
2021/12/07 08:17:41;;;;;;;;;;;;;;;7.55;61.58;100001.28;4974294;28;7263;-74
2021/12/07 08:20:08;;;;;;;;;;;;;;;7.57;61.30;99997.16;4973922;28;6968;-74
2021/12/07 08:22:34;;;;;;;;;;;;;;;7.61;60.85;99994.84;4977961;28;6804;-74
2021/12/07 08:24:59;;;;;;;;;;;;;;;7.62;61.05;100004.25;4979919;28;6899;-74
2021/12/07 08:27:26;;;;;;;;;;;;;;;7.63;61.38;99998.38;4979506;28;7181;-74
2021/12/07 08:29:53;;;;;;;;;;;;;;;7.67;60.82;99995.97;4980640;28;6816;-74
2021/12/07 08:32:18;;;;;;;;;;;;;;;7.73;61.40;99998.88;4979122;28;7208;-73
2021/12/07 08:34:44;;;;;;;;;;;;;;;7.81;60.85;100005.22;4964875;28;6877;-74
2021/12/07 08:37:11;;;;;;;;;;;;;;;7.88;60.31;100011.56;4962457;28;7135;-74
2021/12/07 08:39:37;;;;;;;;;;;;;;;7.94;60.74;100016.97;4981301;28;6812;-74
2021/12/07 08:42:05;;;;;;;;;;;;;;;8.01;60.37;100013.03;4979045;28;6947;-74
2021/12/07 08:44:31;;;;;;;;;;;;;;;8.09;60.11;100016.88;4977252;28;6996;-74
2021/12/07 08:46:58;;;;;;;;;;;;;;;8.16;60.48;100024.06;4962920;28;6872;-74
2021/12/07 08:49:23;;;;;;;;;;;;;;;8.24;60.29;100031.25;4962791;28;7454;-74
2021/12/07 08:51:51;;;;;;;;;;;;;;;8.27;59.49;100027.19;4961325;28;6780;-74
2021/12/07 08:59:45;;;;;;;;;;;;;;;8.35;59.84;100035.22;4976025;28;6903;-74
2021/12/07 09:02:20;;;;;;;;;;;;;;;8.42;59.58;100031.28;4976601;28;7202;-74
2021/12/07 09:04:49;;;;;;;;;;;;;;;8.44;59.32;100025.47;4980372;28;6828;-74
2021/12/07 09:07:15;;;;;;;;;;;;;;;8.46;59.20;100017.91;4974425;28;8048;-74
2021/12/07 09:09:44;;;;;;;;;;;;;;;8.46;59.30;100016.22;4993802;28;6932;-74
2021/12/07 09:12:13;;;;;;;;;;;;;;;8.44;59.52;100007.59;4977295;28;6887;-74
2021/12/07 09:14:41;;;;;;;;;;;;;;;8.41;58.08;99999.78;4976342;28;8085;-74
2021/12/07 09:17:10;;;;;;;;;;;;;;;8.37;59.06;99997.88;4987983;28;6800;-74
2021/12/07 09:19:37;;;;;;;;;;;;;;;8.32;59.06;99984.88;4974522;28;6795;-74
2021/12/07 09:22:03;;;;;;;;;;;;;;;8.31;59.11;99988.22;4974990;28;6852;-74
2021/12/07 09:24:30;;;;;;;;;;;;;;;8.30;58.82;99986.47;4973483;28;6796;-74
2021/12/07 09:26:56;;;;;;;;;;;;;;;8.29;58.15;99982.16;4974155;28;6792;-74
2021/12/07 09:29:22;;;;;;;;;;;;;;;8.30;59.43;99983.03;4976977;28;6811;-74
2021/12/07 09:31:48;;;;;;;;;;;;;;;8.31;59.58;99987.38;4957986;28;6796;-74
2021/12/07 09:34:15;;;;;;;;;;;;;;;8.31;58.27;99993.31;4974747;28;6788;-74
2021/12/07 09:36:42;;;;;;;;;;;;;;;8.32;58.64;99994.22;4971415;28;6935;-74
2021/12/07 09:39:15;;;;;;;;;;;;;;;8.34;59.32;99992.63;4978843;28;6920;-74
2021/12/07 09:41:41;;;;;;;;;;;;;;;8.36;58.73;100001.22;4979845;28;7260;-74
2021/12/07 09:44:09;;;;;;;;;;;;;;;8.38;59.57;99999.63;4974982;28;7063;-74
2021/12/07 09:46:36;;;;;;;;;;;;;;;8.40;59.22;99992.03;4977990;28;7137;-74
2021/12/07 09:49:06;;;;;;;;;;;;;;;8.42;58.76;99998.09;4976187;28;6879;-74
2021/12/07 09:51:32;;;;;;;;;;;;;;;8.45;58.94;100004.25;4976173;28;7094;-74
2021/12/07 09:53:59;;;;;;;;;;;;;;;8.48;58.23;100001.81;4973781;28;7220;-74
2021/12/07 09:56:27;;;;;;;;;;;;;;;8.53;59.34;99993.56;4958507;28;6804;-74
2021/12/07 09:58:56;;;;;;;;;;;;;;;8.60;59.35;99993.09;4990784;28;6819;-74
2021/12/07 10:01:25;;;;;;;;;;;;;;;8.65;59.62;99983.94;4957602;28;6816;-74
2021/12/07 10:03:52;;;;;;;;;;;;;;;8.77;59.33;99988.78;4975429;28;6792;-74
2021/12/07 10:06:19;;;;;;;;;;;;;;;8.88;59.48;99987.63;4974549;28;7276;-74
2021/12/07 10:08:47;;;;;;;;;;;;;;;9.07;58.59;99992.72;4957613;28;7037;-74
2021/12/07 10:11:15;;;;;;;;;;;;;;;9.25;59.61;99985.91;4990819;28;6800;-74
2021/12/07 10:13:45;;;;;;;;;;;;;;;9.44;58.99;99984.22;4973819;28;7294;-74
2021/12/07 10:16:15;;;;;;;;;;;;;;;9.61;58.23;99982.44;4985956;28;6804;-74
2021/12/07 10:18:42;;;;;;;;;;;;;;;9.75;57.97;99975.34;4976381;28;6819;-74
2021/12/07 10:21:22;;;;;;;;;;;;;;;9.85;57.93;99971.53;4975491;28;7225;-74
2021/12/07 10:23:58;;;;;;;;;;;;;;;9.99;57.06;99967.03;4974471;28;6824;-74
2021/12/07 10:26:35;;;;;;;;;;;;;;;10.20;57.37;99966.19;4973801;28;6899;-74
2021/12/07 10:29:12;;;;;;;;;;;;;;;10.48;56.49;99964.81;4977431;28;6820;-74
2021/12/07 10:31:49;;;;;;;;;;;;;;;10.81;55.93;99961.88;4974554;28;7205;-74
2021/12/07 10:34:23;;;;;;;;;;;;;;;11.16;55.07;99964.09;4972669;28;6898;-74
2021/12/07 10:37:15;;;;;;;;;;;;;;;11.41;54.50;99965.00;4972372;28;6987;-74
2021/12/07 10:39:48;;;;;;;;;;;;;;;11.57;54.10;99956.19;4988288;28;7259;-74
2021/12/07 10:42:26;;;;;;;;;;;;;;;11.70;53.87;99953.25;4971574;28;6812;-74
2021/12/07 10:44:52;;;;;;;;;;;;;;;11.89;53.77;99946.22;4975665;28;6816;-74
2021/12/07 10:47:23;;;;;;;;;;;;;;;12.11;52.94;99941.84;4974425;28;6819;-74
2021/12/07 10:49:54;;;;;;;;;;;;;;;12.42;52.23;99923.22;4966536;28;7012;-74
2021/12/07 10:52:32;;;;;;;;;;;;;;;12.80;50.80;99921.81;4976664;28;6804;-74
2021/12/07 10:55:17;;;;;;;;;;;;;;;13.14;50.62;99909.97;4990722;28;7448;-74
2021/12/07 10:57:59;;;;;;;;;;;;;;;13.42;49.12;99900.47;4959463;28;6997;-74
2021/12/07 11:00:33;;;;;;;;;;;;;;;13.59;49.60;99899.28;4965546;28;6808;-74
2021/12/07 11:03:22;;;;;;;;;;;;;;;13.71;48.76;99882.41;4972800;28;6820;-74
2021/12/07 11:05:54;;;;;;;;;;;;;;;13.90;48.42;99886.34;4959943;28;7019;-74
2021/12/07 11:08:26;;;;;;;;;;;;;;;14.08;48.68;99872.19;4974870;28;6990;-74
2021/12/07 11:10:54;;;;;;;;;;;;;;;14.37;48.27;99869.47;4974972;28;6878;-74
2021/12/07 11:13:34;;;;;;;;;;;;;;;14.73;47.32;99866.03;4975162;28;7015;-74
2021/12/07 11:16:07;;;;;;;;;;;;;;;15.03;45.86;99854.63;4975232;28;8148;-75
2021/12/07 11:18:48;;;;;;;;;;;;;;;15.27;45.55;99849.09;4976035;28;7256;-74
2021/12/07 11:21:17;;;;;;;;;;;;;;;15.51;45.36;99844.38;4990779;28;7495;-74
2021/12/07 11:23:47;;;;;;;;;;;;;;;15.76;45.03;99840.53;4957333;28;6812;-74
2021/12/07 11:31:52;;;;;;;;;;;;;;;16.08;43.50;99822.19;4976163;28;7051;-74
2021/12/07 11:34:40;;;;;;;;;;;;;;;16.20;42.76;99831.81;4976564;28;6808;-74
2021/12/07 11:37:10;;;;;;;;;;;;;;;16.26;42.29;99822.44;4974525;28;6883;-75
2021/12/07 11:39:50;;;;;;;;;;;;;;;16.36;42.35;99826.91;4976120;28;6796;-75
2021/12/07 11:42:28;;;;;;;;;;;;;;;16.46;41.84;99822.72;4977132;28;6812;-75
2021/12/07 11:45:04;;;;;;;;;;;;;;;16.57;42.16;99822.88;4975456;28;6883;-74
2021/12/07 11:47:45;;;;;;;;;;;;;;;16.60;41.85;99821.22;4976217;28;6816;-74
2021/12/07 11:50:31;;;;;;;;;;;;;;;16.65;41.98;99818.69;4975758;28;6896;-74
2021/12/07 11:53:07;;;;;;;;;;;;;;;16.64;40.84;99827.31;4975984;28;6816;-74
2021/12/07 11:55:37;;;;;;;;;;;;;;;16.55;40.59;99822.84;4942842;28;9670;-74
2021/12/07 11:58:07;;;;;;;;;;;;;;;16.44;40.12;99825.31;4975638;28;7217;-74
2021/12/07 12:00:44;;;;;;;;;;;;;;;16.02;40.44;99816.00;4975788;28;6891;-75
2021/12/07 12:03:14;;;;;;;;;;;;;;;15.12;40.98;99813.53;4959489;28;6816;-74
2021/12/07 12:05:43;;;;;;;;;;;;;;;14.24;42.13;99809.88;4959331;28;6993;-74
2021/12/07 12:08:13;;;;;;;;;;;;;;;13.53;42.80;99818.44;4976742;28;7193;-74
2021/12/07 12:10:44;;;;;;;;;;;;;;;12.92;44.05;99812.44;4957959;28;6984;-74
2021/12/07 12:13:31;;;;;;;;;;;;;;;12.42;45.25;99810.13;4974387;28;7094;-74
2021/12/07 12:16:30;;;;;;;;;;;;;;;12.02;45.74;99814.84;4976664;28;7060;-74
2021/12/07 12:19:35;;;;;;;;;;;;;;;11.75;46.62;99814.78;4975426;28;6938;-74
2021/12/07 12:22:31;;;;;;;;;;;;;;;11.56;46.78;99808.13;4961265;28;7480;-74
2021/12/07 12:25:04;;;;;;;;;;;;;;;11.44;47.62;99800.88;4979230;28;7249;-74
2021/12/07 12:27:34;;;;;;;;;;;;;;;11.35;47.70;99796.31;4975273;28;6839;-74
2021/12/07 12:30:20;;;;;;;;;;;;;;;11.25;47.60;99788.28;4959654;28;6792;-74
2021/12/07 12:32:54;;;;;;;;;;;;;;;11.19;47.75;99788.06;4975551;28;7151;-74
2021/12/07 12:35:41;;;;;;;;;;;;;;;11.14;47.71;99775.91;4974019;28;7031;-74
2021/12/07 12:38:19;;;;;;;;;;;;;;;11.08;48.21;99771.44;4977874;28;6820;-74
2021/12/07 12:41:02;;;;;;;;;;;;;;;11.03;48.05;99761.00;4977243;28;6808;-74
2021/12/07 12:43:54;;;;;;;;;;;;;;;10.97;47.91;99756.53;4956554;28;6804;-74
2021/12/07 12:46:31;;;;;;;;;;;;;;;10.95;48.01;99753.03;4973803;28;6820;-74
2021/12/07 12:49:06;;;;;;;;;;;;;;;10.91;48.28;99746.06;4973410;28;6966;-74
2021/12/07 12:51:49;;;;;;;;;;;;;;;10.88;48.22;99756.19;4973056;28;7835;-74
2021/12/07 12:54:17;;;;;;;;;;;;;;;10.84;48.47;99739.81;4961432;28;6888;-74
2021/12/07 12:56:43;;;;;;;;;;;;;;;10.83;48.40;99737.22;4972377;28;6926;-74
2021/12/07 12:59:12;;;;;;;;;;;;;;;10.83;48.82;99737.22;4971822;28;6875;-74
2021/12/07 13:01:44;;;;;;;;;;;;;;;10.83;48.87;99740.66;4955108;28;7041;-74
2021/12/07 13:04:14;;;;;;;;;;;;;;;10.81;48.74;99726.91;4971973;28;6880;-74
2021/12/07 13:09:41;;;;;;;;;;;;;;;10.78;49.02;99718.22;4968464;28;6912;-74
2021/12/07 13:12:21;;;;;;;;;;;;;;;10.78;49.11;99710.53;4979348;28;6978;-74
2021/12/07 13:14:50;;;;;;;;;;;;;;;10.75;49.17;99702.75;4974145;28;7252;-74
2021/12/07 13:17:18;;;;;;;;;;;;;;;10.74;48.98;99696.75;4974596;28;7168;-74
2021/12/07 13:20:30;;;;;;;;;;;;;;;10.70;49.21;99682.94;4974966;28;6840;-74
2021/12/07 13:23:13;;;;;;;;;;;;;;;10.66;49.07;99675.09;4989605;28;6824;-74
2021/12/07 13:25:51;;;;;;;;;;;;;;;10.64;49.34;99669.91;4973356;28;7331;-74
2021/12/07 13:28:29;;;;;;;;;;;;;;;10.62;49.39;99656.19;4975132;28;6954;-74
2021/12/07 13:31:17;;;;;;;;;;;;;;;10.59;48.98;99656.06;4956968;28;6994;-74
2021/12/07 13:33:55;;;;;;;;;;;;;;;10.58;49.06;99662.00;4976874;28;6827;-74
2021/12/07 13:36:31;;;;;;;;;;;;;;;10.58;49.23;99662.00;4964641;28;7188;-74
2021/12/07 13:39:21;;;;;;;;;;;;;;;10.56;49.20;99643.16;4974868;28;6819;-74
2021/12/07 13:42:00;;;;;;;;;;;;;;;10.54;49.45;99639.66;4938241;28;7004;-74
2021/12/07 13:44:28;;;;;;;;;;;;;;;10.51;49.35;99626.72;4973412;28;6816;-74
2021/12/07 13:47:12;;;;;;;;;;;;;;;10.47;49.81;99625.72;4973257;28;6823;-74
2021/12/07 13:49:45;;;;;;;;;;;;;;;10.46;50.01;99633.38;4974948;28;7025;-74
2021/12/07 13:52:20;;;;;;;;;;;;;;;10.42;50.03;99627.28;4973701;28;6849;-74
2021/12/07 13:54:51;;;;;;;;;;;;;;;10.39;49.44;99628.00;4988073;28;6977;-74
2021/12/07 13:57:22;;;;;;;;;;;;;;;10.36;50.12;99624.44;4973232;28;6968;-74
2021/12/07 14:00:10;;;;;;;;;;;;;;;10.33;49.51;99620.06;4956754;28;7663;-74
2021/12/07 14:02:39;;;;;;;;;;;;;;;10.26;49.58;99615.56;4974955;28;6987;-74
2021/12/07 14:05:14;;;;;;;;;;;;;;;10.23;50.24;99613.75;4972086;28;6812;-74
2021/12/07 14:07:43;;;;;;;;;;;;;;;10.20;49.92;99610.22;4957097;28;6834;-74
2021/12/07 14:10:22;;;;;;;;;;;;;;;10.17;49.94;99612.66;4972359;28;6960;-74
2021/12/07 14:12:49;;;;;;;;;;;;;;;10.11;49.89;99605.63;4973321;28;6803;-74
2021/12/07 14:15:26;;;;;;;;;;;;;;;10.05;50.38;99605.41;4971442;28;6970;-74
2021/12/07 14:17:59;;;;;;;;;;;;;;;10.00;50.33;99607.78;4973948;28;7265;-74
2021/12/07 14:20:44;;;;;;;;;;;;;;;9.95;50.40;99593.97;4971994;28;7242;-74
2021/12/07 14:23:14;;;;;;;;;;;;;;;9.89;50.28;99583.47;4976055;28;6827;-74
2021/12/07 14:25:57;;;;;;;;;;;;;;;9.84;49.89;99581.59;4974098;28;6915;-74
2021/12/07 14:28:46;;;;;;;;;;;;;;;9.76;50.10;99577.91;4975972;28;7146;-74
2021/12/07 14:31:22;;;;;;;;;;;;;;;9.69;50.59;99569.09;4975535;28;6792;-74
2021/12/07 14:33:58;;;;;;;;;;;;;;;9.65;50.32;99567.25;4973744;28;6886;-74
2021/12/07 14:36:38;;;;;;;;;;;;;;;9.59;49.93;99556.75;4974659;28;6815;-74
2021/12/07 14:39:17;;;;;;;;;;;;;;;9.53;50.22;99554.84;4974315;28;7129;-74
2021/12/07 14:41:54;;;;;;;;;;;;;;;9.49;50.97;99552.13;4972547;28;7235;-74
2021/12/07 14:44:25;;;;;;;;;;;;;;;9.47;50.17;99546.06;4963599;28;6882;-74
2021/12/07 14:46:53;;;;;;;;;;;;;;;9.44;50.86;99550.25;4965285;28;7204;-75
2021/12/07 14:49:20;;;;;;;;;;;;;;;9.40;50.44;99537.28;4973537;28;6803;-74
2021/12/07 14:51:46;;;;;;;;;;;;;;;9.36;50.66;99525.19;4975273;28;6800;-74
2021/12/07 14:54:15;;;;;;;;;;;;;;;9.31;50.10;99520.78;4971949;28;6971;-74
2021/12/07 14:56:41;;;;;;;;;;;;;;;9.27;50.50;99521.47;4975183;28;6788;-74
2021/12/07 14:59:12;;;;;;;;;;;;;;;9.23;50.36;99513.63;4954730;28;7000;-74
2021/12/07 15:01:46;;;;;;;;;;;;;;;9.19;51.56;99512.63;4973469;28;6803;-74
2021/12/07 15:04:15;;;;;;;;;;;;;;;9.13;50.90;99507.25;4974438;28;6812;-74
2021/12/07 15:06:49;;;;;;;;;;;;;;;9.09;51.19;99513.09;4966255;28;6970;-74
2021/12/07 15:09:18;;;;;;;;;;;;;;;9.02;50.95;99505.16;4974138;28;7252;-74
2021/12/07 15:11:48;;;;;;;;;;;;;;;8.97;50.47;99506.66;4975073;28;6992;-74
2021/12/07 15:14:18;;;;;;;;;;;;;;;8.91;51.82;99501.31;4975363;28;7026;-74
2021/12/07 15:16:48;;;;;;;;;;;;;;;8.85;50.90;99506.16;4955876;28;7102;-74
2021/12/07 15:19:14;;;;;;;;;;;;;;;8.80;51.17;99497.44;4973473;28;7186;-74